Time;durP1;ratioP1;P1;durP2;ratioP2;P2;SDS_P1;SDS_P2;PMS_P1;PMS_P2;Temp;Humidity;BMP_temperature;BMP_pressure;BME280_temperature;BME280_humidity;BME280_pressure;Samples;Min_cycle;Max_cycle;Signal;HPM_P1;HPM_P2
2021/05/17 00:01:16;;;;;;;12.35;9.30;;;10.30;99.90;;;;;;4942845;28;20043;-63
2021/05/17 00:03:48;;;;;;;9.65;7.72;;;10.30;99.90;;;;;;4948300;28;20039;-64
2021/05/17 00:06:15;;;;;;;10.68;7.70;;;10.30;99.90;;;;;;4944192;28;20055;-64
2021/05/17 00:08:45;;;;;;;9.45;8.27;;;10.30;99.90;;;;;;4942665;28;20058;-64
2021/05/17 00:11:13;;;;;;;10.48;8.63;;;10.30;99.90;;;;;;4946766;28;20059;-64
2021/05/17 00:13:40;;;;;;;8.13;7.32;;;10.30;99.90;;;;;;4943239;28;20055;-64
2021/05/17 00:16:07;;;;;;;13.70;9.40;;;10.30;99.90;;;;;;4944342;28;20051;-64
2021/05/17 00:18:35;;;;;;;12.20;7.85;;;10.30;99.90;;;;;;4941923;28;20062;-64
2021/05/17 00:21:02;;;;;;;10.55;9.25;;;10.30;99.90;;;;;;4942931;28;20520;-64
2021/05/17 00:23:30;;;;;;;8.75;7.95;;;10.30;99.90;;;;;;4941858;28;20047;-64
2021/05/17 00:25:57;;;;;;;10.13;7.88;;;10.30;99.90;;;;;;4944123;28;20051;-64
2021/05/17 00:28:24;;;;;;;10.88;9.82;;;10.30;99.90;;;;;;4945853;28;20099;-63
2021/05/17 00:30:51;;;;;;;8.45;7.55;;;10.30;99.90;;;;;;4945359;28;20090;-64
2021/05/17 00:33:18;;;;;;;9.35;8.45;;;10.30;99.90;;;;;;4939611;28;20058;-64
2021/05/17 00:35:46;;;;;;;9.65;8.65;;;10.30;99.90;;;;;;4929035;28;20061;-64
2021/05/17 00:38:13;;;;;;;9.07;8.27;;;10.30;99.90;;;;;;4942362;28;20051;-64
2021/05/17 00:40:40;;;;;;;11.20;8.32;;;10.30;99.90;;;;;;4939213;28;20079;-64
2021/05/17 00:43:09;;;;;;;13.55;8.82;;;10.30;99.90;;;;;;4946793;28;20103;-63
2021/05/17 00:45:36;;;;;;;9.88;8.82;;;10.30;99.90;;;;;;4943441;28;20058;-64
2021/05/17 00:48:04;;;;;;;10.50;9.48;;;10.30;99.90;;;;;;4944177;28;20733;-64
2021/05/17 00:50:31;;;;;;;9.18;8.27;;;10.30;99.90;;;;;;4944928;28;20047;-64
2021/05/17 00:52:59;;;;;;;10.88;9.82;;;10.30;99.90;;;;;;4939511;28;20058;-64
2021/05/17 00:55:28;;;;;;;14.18;11.27;;;10.30;99.90;;;;;;4958476;28;20042;-64
2021/05/17 00:57:58;;;;;;;11.45;10.35;;;10.40;99.90;;;;;;4928880;29;20063;-64
2021/05/17 01:00:26;;;;;;;10.55;9.25;;;10.40;99.90;;;;;;4942906;28;20434;-64
2021/05/17 01:02:58;;;;;;;15.40;10.07;;;10.40;99.90;;;;;;4945309;28;20101;-64
2021/05/17 01:05:48;;;;;;;12.20;9.32;;;10.40;99.90;;;;;;4932769;28;20043;-63
2021/05/17 01:08:36;;;;;;;12.13;10.93;;;10.40;99.90;;;;;;4923931;28;20050;-63
2021/05/17 01:11:05;;;;;;;16.33;10.05;;;10.40;99.90;;;;;;4945577;28;20067;-64
2021/05/17 01:13:33;;;;;;;13.90;9.93;;;10.40;99.90;;;;;;4927968;29;20775;-64
2021/05/17 01:16:02;;;;;;;11.15;9.70;;;10.40;99.90;;;;;;4943033;28;20050;-64
2021/05/17 01:18:32;;;;;;;10.23;9.20;;;10.40;99.90;;;;;;4947751;28;20054;-64
2021/05/17 01:21:00;;;;;;;11.45;10.18;;;10.40;99.90;;;;;;4944306;28;20049;-64
2021/05/17 01:26:07;;;;;;;14.95;10.27;;;10.40;99.90;;;;;;4958512;28;20043;-64
2021/05/17 01:28:35;;;;;;;11.88;10.65;;;10.30;99.90;;;;;;4942570;28;20055;-64
2021/05/17 01:31:05;;;;;;;11.10;10.05;;;10.30;99.90;;;;;;4944454;28;20055;-64
2021/05/17 01:33:37;;;;;;;;;;;10.30;99.90;;;;;;4925478;29;20130;-64
2021/05/17 01:36:06;;;;;;;11.88;10.63;;;10.30;99.90;;;;;;4925060;28;20463;-64
2021/05/17 01:38:36;;;;;;;12.23;10.77;;;10.40;99.90;;;;;;4940853;28;20058;-63
2021/05/17 01:41:07;;;;;;;12.20;10.80;;;10.30;99.90;;;;;;4942223;28;20058;-64
2021/05/17 01:43:44;;;;;;;14.07;11.18;;;10.30;99.90;;;;;;4957970;28;20054;-64
2021/05/17 01:46:32;;;;;;;16.70;11.32;;;10.30;99.90;;;;;;4944042;28;20062;-64
2021/05/17 01:49:13;;;;;;;13.65;11.98;;;10.30;99.90;;;;;;4922522;28;20043;-64
2021/05/17 01:51:48;;;;;;;16.65;11.13;;;10.30;99.90;;;;;;4929194;29;20054;-64
2021/05/17 01:54:18;;;;;;;19.20;12.65;;;10.30;99.90;;;;;;4940214;28;20635;-64
2021/05/17 01:56:50;;;;;;;16.98;12.77;;;10.40;99.90;;;;;;4927654;28;20051;-64
2021/05/17 01:59:30;;;;;;;14.25;11.30;;;10.30;99.90;;;;;;4926782;28;20090;-64
2021/05/17 02:01:58;;;;;;;15.32;12.43;;;10.40;99.90;;;;;;4943262;28;20062;-64
2021/05/17 02:04:28;;;;;;;18.90;11.50;;;10.40;99.90;;;;;;4930820;28;20078;-64
2021/05/17 02:06:56;;;;;;;13.77;12.23;;;10.40;99.90;;;;;;4943450;28;20051;-64
2021/05/17 02:09:26;;;;;;;14.52;11.40;;;10.40;99.90;;;;;;4953874;28;20071;-64
2021/05/17 02:11:54;;;;;;;15.85;13.02;;;10.40;99.90;;;;;;4920313;28;20048;-64
2021/05/17 02:14:42;;;;;;;16.23;12.45;;;10.40;99.90;;;;;;4945767;28;20047;-64
2021/05/17 02:17:10;;;;;;;14.85;11.02;;;10.40;99.90;;;;;;4937446;28;20047;-65
2021/05/17 02:19:37;;;;;;;12.60;10.80;;;10.40;99.90;;;;;;4927313;28;20138;-64
2021/05/17 02:22:05;;;;;;;13.52;11.20;;;10.40;99.90;;;;;;4928829;29;20051;-64
2021/05/17 02:24:36;;;;;;;13.13;10.13;;;10.40;99.90;;;;;;4939296;28;20044;-64
2021/05/17 02:27:07;;;;;;;14.18;11.48;;;10.40;99.90;;;;;;4944865;28;20178;-64
2021/05/17 02:29:39;;;;;;;15.18;12.30;;;10.50;99.90;;;;;;4940528;28;20055;-64
2021/05/17 02:32:06;;;;;;;12.07;9.98;;;10.50;99.90;;;;;;4943932;28;20051;-64
2021/05/17 02:34:35;;;;;;;11.95;10.63;;;10.40;99.90;;;;;;4944101;28;20114;-64
2021/05/17 02:37:07;;;;;;;13.50;10.77;;;10.40;99.90;;;;;;4957483;28;20043;-64
2021/05/17 02:39:34;;;;;;;14.32;12.05;;;10.40;99.90;;;;;;4943173;28;20055;-64
2021/05/17 02:42:01;;;;;;;11.23;9.80;;;10.40;99.90;;;;;;4945314;28;20138;-64
2021/05/17 02:44:28;;;;;;;14.90;10.45;;;10.40;99.90;;;;;;4942696;28;20122;-64
2021/05/17 02:46:57;;;;;;;14.25;12.05;;;10.40;99.90;;;;;;4942602;28;20697;-64
2021/05/17 02:49:29;;;;;;;12.95;10.45;;;10.50;99.90;;;;;;4943004;28;20043;-64
2021/05/17 02:51:58;;;;;;;16.70;11.55;;;10.50;99.90;;;;;;4942989;28;20051;-64
2021/05/17 02:54:30;;;;;;;17.75;12.98;;;10.40;99.90;;;;;;4946781;28;20051;-64
2021/05/17 02:56:57;;;;;;;15.73;11.93;;;10.50;99.90;;;;;;4929044;28;20062;-64
2021/05/17 02:59:38;;;;;;;15.63;13.27;;;10.50;99.90;;;;;;4922642;28;20479;-64
2021/05/17 03:02:10;;;;;;;14.82;11.50;;;10.50;99.90;;;;;;4940284;28;20094;-64
2021/05/17 03:04:40;;;;;;;16.45;12.35;;;10.50;99.90;;;;;;4944456;28;20374;-64
2021/05/17 03:07:11;;;;;;;12.73;11.07;;;10.60;99.90;;;;;;4940769;28;20130;-64
2021/05/17 03:09:43;;;;;;;17.23;11.35;;;10.60;99.90;;;;;;4944762;28;20043;-64
2021/05/17 03:12:11;;;;;;;13.43;11.07;;;10.60;99.90;;;;;;4958258;28;20077;-64
2021/05/17 03:14:41;;;;;;;10.85;9.52;;;10.60;99.90;;;;;;4944474;28;20130;-64
2021/05/17 03:17:10;;;;;;;12.73;10.82;;;10.60;99.90;;;;;;4944720;28;20393;-65
2021/05/17 03:19:42;;;;;;;11.43;10.20;;;10.60;99.90;;;;;;4955494;28;20051;-64
2021/05/17 03:22:11;;;;;;;13.02;10.45;;;10.60;99.90;;;;;;4943474;28;20046;-64
2021/05/17 03:24:40;;;;;;;12.48;9.25;;;10.60;99.90;;;;;;4927705;29;20047;-64
2021/05/17 03:27:24;;;;;;;12.27;9.55;;;10.60;99.90;;;;;;4941426;28;20769;-64
2021/05/17 03:29:51;;;;;;;14.48;11.23;;;10.70;99.90;;;;;;4941137;28;20407;-64
2021/05/17 03:32:20;;;;;;;12.43;10.77;;;10.70;99.90;;;;;;4954781;28;20702;-64
2021/05/17 03:34:47;;;;;;;11.57;10.38;;;10.70;99.90;;;;;;4941292;28;20393;-64
2021/05/17 03:37:15;;;;;;;13.00;9.82;;;10.70;99.90;;;;;;4942735;28;20054;-64
2021/05/17 03:39:46;;;;;;;12.77;10.30;;;10.70;99.90;;;;;;4941605;28;20099;-64
2021/05/17 03:42:14;;;;;;;12.57;10.18;;;10.70;99.90;;;;;;4938495;28;20084;-64
2021/05/17 03:44:41;;;;;;;12.10;10.52;;;10.70;99.90;;;;;;4939808;28;20107;-64
2021/05/17 03:47:08;;;;;;;11.05;9.80;;;10.80;99.90;;;;;;4940825;28;20051;-64
2021/05/17 03:49:35;;;;;;;14.60;10.50;;;10.80;99.90;;;;;;4942653;28;20051;-64
2021/05/17 03:52:03;;;;;;;13.20;10.50;;;10.80;99.90;;;;;;4943435;28;20221;-64
2021/05/17 03:54:30;;;;;;;10.43;8.38;;;10.80;99.90;;;;;;4939805;28;20054;-64
2021/05/17 03:56:58;;;;;;;12.00;9.75;;;10.80;99.90;;;;;;4944145;28;20710;-64
2021/05/17 03:59:26;;;;;;;12.07;10.63;;;10.90;99.90;;;;;;4933808;28;20505;-64
2021/05/17 04:01:53;;;;;;;11.90;9.65;;;10.90;99.90;;;;;;4944055;28;20630;-64
2021/05/17 04:04:22;;;;;;;12.30;10.02;;;10.90;99.90;;;;;;4942413;28;20539;-64
2021/05/17 04:07:13;;;;;;;13.75;10.75;;;10.90;99.90;;;;;;4957067;28;20658;-64
2021/05/17 04:15:11;;;;;;;11.30;10.13;;;10.90;99.90;;;;;;4942394;28;20162;-65
2021/05/17 04:17:38;;;;;;;11.02;8.90;;;10.90;99.90;;;;;;4947633;28;20150;-64
2021/05/17 04:20:06;;;;;;;12.20;10.98;;;10.90;99.90;;;;;;4939348;28;20051;-64
2021/05/17 04:22:36;;;;;;;10.38;9.20;;;10.90;99.90;;;;;;4945631;28;20045;-64
2021/05/17 04:25:03;;;;;;;15.13;10.25;;;11.00;99.90;;;;;;4945225;28;20047;-64
2021/05/17 04:27:30;;;;;;;11.85;9.90;;;10.90;99.90;;;;;;4941957;28;20059;-64
2021/05/17 04:29:58;;;;;;;11.88;10.10;;;10.90;99.90;;;;;;4943854;28;20362;-64
2021/05/17 04:32:24;;;;;;;13.48;11.20;;;10.90;99.90;;;;;;4942433;28;20497;-64
2021/05/17 04:34:51;;;;;;;14.90;11.35;;;10.90;99.90;;;;;;4945399;28;20043;-64
2021/05/17 04:37:18;;;;;;;10.68;9.57;;;10.90;99.90;;;;;;4943876;28;20055;-64
2021/05/17 04:39:45;;;;;;;11.68;9.70;;;10.80;99.90;;;;;;4947162;28;20059;-64
2021/05/17 04:42:12;;;;;;;12.73;11.35;;;10.90;99.90;;;;;;4946255;28;20055;-64
2021/05/17 04:44:39;;;;;;;14.20;12.55;;;10.80;99.90;;;;;;4946199;28;20142;-63
2021/05/17 04:47:06;;;;;;;14.48;11.25;;;10.80;99.90;;;;;;4947114;28;20062;-64
2021/05/17 04:49:33;;;;;;;14.05;11.32;;;10.70;99.90;;;;;;4943929;28;20051;-64
2021/05/17 04:52:00;;;;;;;16.08;12.27;;;10.60;99.90;;;;;;4947465;28;20103;-64
2021/05/17 04:54:27;;;;;;;15.93;11.88;;;10.70;99.90;;;;;;4948114;28;20117;-64
2021/05/17 04:56:54;;;;;;;27.15;11.23;;;10.60;99.90;;;;;;4945911;28;20047;-63
2021/05/17 04:59:21;;;;;;;15.25;10.75;;;10.40;99.90;;;;;;4945500;28;20438;-64
2021/05/17 05:01:48;;;;;;;12.73;8.38;;;10.30;99.90;;;;;;4946074;28;20051;-63
2021/05/17 05:04:15;;;;;;;16.50;8.27;;;10.10;99.90;;;;;;4947484;28;20043;-64
2021/05/17 05:06:41;;;;;;;11.52;6.88;;;10.10;99.90;;;;;;4926143;29;20053;-64
2021/05/17 05:09:08;;;;;;;12.30;8.00;;;10.00;99.90;;;;;;4942987;28;21539;-64
2021/05/17 05:11:35;;;;;;;12.75;9.40;;;9.90;99.90;;;;;;4943426;28;20186;-63
2021/05/17 05:14:03;;;;;;;10.68;7.88;;;9.90;99.90;;;;;;4945828;28;20070;-63
2021/05/17 05:16:30;;;;;;;13.32;7.32;;;9.80;99.90;;;;;;4946348;28;20058;-63
2021/05/17 05:18:57;;;;;;;16.42;8.88;;;9.70;99.90;;;;;;4943065;28;20039;-64
2021/05/17 05:21:24;;;;;;;11.93;7.80;;;9.70;99.90;;;;;;4943357;28;20047;-64
2021/05/17 05:23:51;;;;;;;11.82;8.13;;;9.70;99.90;;;;;;4944557;28;20051;-64
2021/05/17 05:26:38;;;;;;;9.80;7.20;;;9.70;99.90;;;;;;4944499;28;20055;-64
2021/05/17 05:34:00;;;;;;;13.02;8.45;;;9.80;99.90;;;;;;4944308;28;20062;-63
2021/05/17 05:36:26;;;;;;;11.25;7.75;;;9.90;99.90;;;;;;4942267;28;20474;-64
2021/05/17 05:38:54;;;;;;;10.77;7.72;;;9.90;99.90;;;;;;4944363;28;20063;-63
2021/05/17 05:41:21;;;;;;;12.60;8.32;;;9.90;99.90;;;;;;4945255;28;20071;-63
2021/05/17 05:43:48;;;;;;;11.65;6.95;;;9.90;99.90;;;;;;4944140;28;20055;-63
2021/05/17 05:46:15;;;;;;;11.77;7.75;;;9.90;99.90;;;;;;4943918;28;20059;-63
2021/05/17 05:48:48;;;;;;;10.45;7.32;;;9.90;99.90;;;;;;4943987;28;20047;-63
2021/05/17 05:51:23;;;;;;;11.48;8.30;;;9.90;99.90;;;;;;4941468;28;20051;-64
2021/05/17 05:53:50;;;;;;;12.60;7.90;;;9.90;99.90;;;;;;4944914;28;20063;-64
2021/05/17 05:56:18;;;;;;;13.57;7.53;;;10.00;99.90;;;;;;4942353;28;20074;-64
2021/05/17 05:58:47;;;;;;;14.82;8.10;;;10.00;99.90;;;;;;4927900;28;20126;-64
2021/05/17 06:01:14;;;;;;;10.32;7.65;;;10.00;99.90;;;;;;4942597;28;20074;-64
2021/05/17 06:03:41;;;;;;;13.88;8.38;;;10.00;99.90;;;;;;4947054;28;20051;-63
2021/05/17 06:06:09;;;;;;;10.50;7.68;;;10.10;99.90;;;;;;4867779;28;20073;-64
2021/05/17 06:08:41;;;;;;;11.60;7.40;;;10.20;99.90;;;;;;1020230;28;10002023;-64
2021/05/17 06:11:09;;;;;;;11.60;8.25;;;10.30;99.90;;;;;;4945898;28;20055;-64
2021/05/17 06:13:38;;;;;;;9.38;7.53;;;10.40;99.90;;;;;;4940673;28;20110;-64
2021/05/17 06:16:06;;;;;;;9.45;6.65;;;10.50;99.90;;;;;;4943711;28;20063;-64
2021/05/17 06:18:34;;;;;;;10.05;6.78;;;10.50;99.90;;;;;;4945890;28;20114;-64
2021/05/17 06:21:01;;;;;;;8.95;6.93;;;10.50;99.90;;;;;;4943346;28;20158;-64
2021/05/17 06:23:29;;;;;;;9.02;7.05;;;10.50;99.90;;;;;;4940148;28;20040;-64
2021/05/17 06:25:57;;;;;;;7.72;6.93;;;10.50;99.90;;;;;;4942518;28;20055;-64
2021/05/17 06:28:25;;;;;;;8.57;5.90;;;10.50;99.90;;;;;;4942996;28;20040;-64
2021/05/17 06:30:56;;;;;;;10.27;7.85;;;10.50;99.90;;;;;;4943865;28;20051;-64
2021/05/17 06:33:25;;;;;;;10.10;7.75;;;10.60;99.90;;;;;;4944068;28;20043;-64
2021/05/17 06:35:53;;;;;;;8.10;6.97;;;10.60;99.90;;;;;;4946411;28;20050;-64
2021/05/17 06:38:21;;;;;;;7.38;6.45;;;10.60;99.90;;;;;;4944054;28;20055;-64
2021/05/17 06:40:48;;;;;;;7.18;6.05;;;10.60;99.90;;;;;;4945298;28;20154;-64
2021/05/17 06:43:15;;;;;;;9.32;6.53;;;10.60;99.90;;;;;;4943899;28;20447;-64
2021/05/17 06:45:44;;;;;;;7.65;6.85;;;10.70;99.90;;;;;;4945677;28;20060;-64
2021/05/17 06:48:12;;;;;;;6.82;5.55;;;10.80;99.90;;;;;;4945547;28;20416;-64
2021/05/17 06:50:39;;;;;;;8.07;6.05;;;10.80;99.90;;;;;;4944234;28;20039;-64
2021/05/17 06:53:07;;;;;;;5.28;4.68;;;10.80;99.90;;;;;;4946702;28;20225;-64
2021/05/17 06:55:42;;;;;;;4.57;4.18;;;10.90;99.90;;;;;;4955194;28;20050;-64
2021/05/17 06:58:23;;;;;;;3.78;3.47;;;10.80;99.90;;;;;;4943714;28;20058;-64
2021/05/17 07:00:51;;;;;;;8.20;3.88;;;10.90;99.90;;;;;;4946188;28;20404;-64
2021/05/17 07:03:19;;;;;;;4.50;4.10;;;11.00;99.90;;;;;;4942987;28;20047;-63
2021/05/17 07:05:48;;;;;;;4.07;3.75;;;11.10;99.90;;;;;;4946690;28;20140;-64
2021/05/17 07:13:29;;;;;;;4.38;3.97;;;11.20;99.90;;;;;;4944992;28;20109;-64
2021/05/17 07:15:56;;;;;;;7.13;4.35;;;11.30;99.90;;;;;;4943613;28;20063;-64
2021/05/17 07:18:23;;;;;;;6.15;3.45;;;11.40;99.90;;;;;;4944689;28;20055;-64
2021/05/17 07:26:07;;;;;;;3.63;3.33;;;11.20;99.90;;;;;;4946414;28;20161;-64
2021/05/17 07:28:34;;;;;;;3.33;3.03;;;11.10;99.90;;;;;;4944167;28;20142;-64
2021/05/17 07:31:05;;;;;;;4.15;3.75;;;11.20;99.90;;;;;;4937866;28;20413;-64
2021/05/17 07:33:33;;;;;;;3.15;2.90;;;11.20;99.90;;;;;;4947157;28;20047;-64
2021/05/17 07:36:00;;;;;;;2.40;2.20;;;11.10;99.90;;;;;;4942928;28;20102;-64
2021/05/17 07:38:32;;;;;;;2.53;2.33;;;11.00;99.90;;;;;;4944574;28;20035;-64
2021/05/17 07:41:02;;;;;;;2.35;2.10;;;10.80;99.90;;;;;;4943770;28;20066;-64
2021/05/17 07:43:30;;;;;;;5.82;3.33;;;10.90;99.90;;;;;;4943656;28;20047;-64
2021/05/17 07:45:57;;;;;;;4.03;3.47;;;10.70;99.90;;;;;;4945423;28;20346;-64
2021/05/17 07:48:24;;;;;;;4.10;3.30;;;10.50;99.90;;;;;;4942992;28;20062;-64
2021/05/17 07:50:51;;;;;;;9.40;3.72;;;10.40;99.90;;;;;;4945689;28;20512;-64
2021/05/17 07:53:19;;;;;;;5.35;4.40;;;10.50;99.90;;;;;;4938475;28;20066;-64
2021/05/17 07:55:50;;;;;;;3.92;3.50;;;10.50;99.90;;;;;;4944143;28;20093;-64
2021/05/17 07:58:17;;;;;;;6.40;3.53;;;10.50;99.90;;;;;;4946514;28;20047;-64
2021/05/17 08:00:44;;;;;;;5.80;4.28;;;10.40;99.90;;;;;;4942007;28;20040;-64
2021/05/17 08:03:11;;;;;;;5.18;4.35;;;10.30;99.90;;;;;;4943997;28;20051;-64
2021/05/17 08:05:58;;;;;;;4.63;3.50;;;10.30;99.90;;;;;;4936204;28;20137;-64
2021/05/17 08:08:25;;;;;;;6.30;3.50;;;10.50;99.90;;;;;;4937915;28;20059;-64
2021/05/17 08:10:52;;;;;;;2.85;2.58;;;10.40;99.90;;;;;;4941193;28;20576;-64
2021/05/17 08:13:19;;;;;;;2.33;2.10;;;10.40;99.90;;;;;;4944676;28;20162;-64
2021/05/17 08:16:08;;;;;;;6.55;2.85;;;10.60;99.90;;;;;;4948737;28;20053;-64
2021/05/17 08:18:37;;;;;;;3.05;2.67;;;10.60;99.90;;;;;;4947427;28;20105;-65
2021/05/17 08:21:05;;;;;;;7.13;3.08;;;10.40;99.90;;;;;;4946408;28;20058;-64
2021/05/17 08:23:32;;;;;;;9.02;3.33;;;10.30;99.90;;;;;;4944373;28;20051;-64
2021/05/17 08:25:59;;;;;;;3.75;3.15;;;10.30;99.90;;;;;;4929207;28;20063;-64
2021/05/17 08:28:26;;;;;;;2.92;2.45;;;10.50;99.90;;;;;;4949053;28;20464;-64
2021/05/17 08:30:57;;;;;;;3.53;2.05;;;10.50;99.90;;;;;;4937814;28;20119;-64
2021/05/17 08:33:25;;;;;;;3.50;3.20;;;10.60;99.90;;;;;;4936041;28;20059;-64
2021/05/17 08:35:52;;;;;;;4.10;2.58;;;10.60;99.90;;;;;;4948160;28;20134;-64
2021/05/17 08:38:19;;;;;;;3.22;2.63;;;10.70;99.90;;;;;;4941575;28;20065;-64
2021/05/17 08:40:47;;;;;;;2.92;2.40;;;10.80;99.90;;;;;;4939709;28;20051;-64
2021/05/17 08:43:14;;;;;;;2.95;2.35;;;10.70;99.90;;;;;;4941750;28;20118;-65
2021/05/17 08:45:44;;;;;;;2.05;1.85;;;10.70;99.90;;;;;;4941376;28;20066;-64
2021/05/17 08:48:12;;;;;;;3.10;2.00;;;10.70;99.90;;;;;;4939707;28;20051;-65
2021/05/17 08:50:39;;;;;;;2.15;1.75;;;10.80;99.90;;;;;;4944286;28;20202;-64
2021/05/17 08:53:07;;;;;;;1.95;1.75;;;10.70;99.90;;;;;;4936254;28;20052;-65
2021/05/17 08:55:34;;;;;;;2.08;1.75;;;10.70;99.90;;;;;;4936579;28;20043;-64
2021/05/17 08:58:02;;;;;;;2.47;2.10;;;10.80;99.90;;;;;;4943878;28;20174;-64
2021/05/17 09:00:29;;;;;;;4.10;2.85;;;10.90;99.90;;;;;;4940205;28;20469;-65
2021/05/17 09:02:55;;;;;;;3.63;2.67;;;11.00;99.90;;;;;;4944359;28;20047;-65
2021/05/17 09:05:32;;;;;;;5.55;2.65;;;11.00;99.90;;;;;;4937934;28;20166;-65
2021/05/17 09:08:04;;;;;;;2.58;2.38;;;11.10;99.90;;;;;;4936847;28;20055;-65
2021/05/17 09:10:35;;;;;;;2.60;2.25;;;11.40;99.90;;;;;;4946083;28;20055;-65
2021/05/17 09:13:09;;;;;;;3.85;2.53;;;11.60;99.90;;;;;;4943094;28;20078;-65
2021/05/17 09:15:40;;;;;;;3.05;2.65;;;11.70;99.90;;;;;;4941046;28;20051;-65
2021/05/17 09:18:16;;;;;;;2.65;2.45;;;11.80;99.90;;;;;;4944781;28;20058;-65
2021/05/17 09:20:44;;;;;;;2.47;2.28;;;11.80;99.90;;;;;;4942275;28;20047;-65
2021/05/17 09:23:27;;;;;;;1.92;1.67;;;11.90;99.90;;;;;;4939535;28;20146;-65
2021/05/17 09:26:16;;;;;;;3.78;1.92;;;11.90;99.90;;;;;;4941523;28;20063;-65
2021/05/17 09:28:51;;;;;;;2.33;2.13;;;11.60;99.90;;;;;;4943261;28;20055;-65
2021/05/17 09:31:20;;;;;;;2.55;2.30;;;11.40;99.90;;;;;;4925809;28;20035;-65
2021/05/17 09:33:48;;;;;;;2.95;2.65;;;11.50;99.90;;;;;;4939427;28;20114;-65
2021/05/17 09:36:33;;;;;;;3.95;2.47;;;11.60;99.90;;;;;;4944266;28;20445;-65
2021/05/17 09:39:13;;;;;;;2.42;2.22;;;11.70;99.90;;;;;;4941354;28;20051;-66
2021/05/17 09:41:55;;;;;;;3.50;3.08;;;11.60;99.90;;;;;;4943212;28;20059;-66
2021/05/17 09:44:26;;;;;;;3.38;2.97;;;11.60;99.90;;;;;;4944340;28;20114;-65
2021/05/17 09:47:05;;;;;;;3.88;3.10;;;11.60;99.90;;;;;;4945985;28;20046;-65
2021/05/17 09:49:37;;;;;;;;;;;11.60;99.90;;;;;;4940723;28;20051;-65
2021/05/17 09:52:05;;;;;;;4.32;3.85;;;11.60;99.90;;;;;;4940558;28;20373;-65
2021/05/17 09:54:55;;;;;;;5.88;4.72;;;11.70;99.90;;;;;;4942759;28;20050;-65
2021/05/17 09:57:29;;;;;;;6.45;5.28;;;11.50;99.90;;;;;;4940404;28;20091;-65
2021/05/17 10:00:03;;;;;;;4.90;4.25;;;11.80;99.90;;;;;;4955678;28;20055;-65
2021/05/17 10:02:37;;;;;;;3.58;2.85;;;11.90;99.90;;;;;;4941798;28;20584;-65
2021/05/17 10:05:31;;;;;;;3.88;3.22;;;12.00;99.90;;;;;;4943260;28;20170;-65
2021/05/17 10:08:04;;;;;;;2.33;1.52;;;11.80;99.90;;;;;;4920073;28;589517;-65
2021/05/17 10:10:43;;;;;;;3.33;3.03;;;11.90;99.90;;;;;;4942787;28;20154;-65
2021/05/17 10:13:11;;;;;;;4.90;2.75;;;11.90;99.90;;;;;;4942513;28;20055;-65
2021/05/17 10:15:38;;;;;;;3.17;2.72;;;11.80;99.90;;;;;;4927783;29;20099;-65
2021/05/17 10:18:11;;;;;;;2.78;2.40;;;11.90;99.90;;;;;;4944231;28;20558;-65
2021/05/17 10:20:38;;;;;;;3.83;3.28;;;12.00;99.90;;;;;;4951097;28;20425;-66
2021/05/17 10:23:05;;;;;;;3.28;2.97;;;12.30;99.90;;;;;;4943821;28;20154;-66
2021/05/17 10:25:36;;;;;;;2.80;2.40;;;12.30;99.90;;;;;;4941677;28;20060;-65
2021/05/17 10:28:18;;;;;;;3.25;3.03;;;12.30;99.90;;;;;;4943722;28;20098;-65
2021/05/17 10:30:45;;;;;;;3.67;2.72;;;12.30;99.90;;;;;;4942188;28;20071;-65
2021/05/17 10:33:25;;;;;;;4.88;2.28;;;12.50;99.90;;;;;;4934455;28;20074;-63
2021/05/17 10:35:53;;;;;;;3.53;2.97;;;12.60;99.90;;;;;;4945208;28;20043;-63
2021/05/17 10:38:30;;;;;;;4.97;3.63;;;13.10;99.90;;;;;;4942703;28;20458;-64
2021/05/17 10:41:21;;;;;;;3.50;3.00;;;13.50;99.90;;;;;;4947661;28;20721;-63
2021/05/17 10:46:53;;;;;;;3.88;3.38;;;14.20;99.90;;;;;;4939027;28;20090;-65
2021/05/17 10:49:36;;;;;;;2.67;2.38;;;14.30;99.90;;;;;;4936916;28;20066;-65
2021/05/17 10:52:07;;;;;;;6.30;4.40;;;14.60;99.90;;;;;;4942965;28;20138;-65
2021/05/17 10:54:37;;;;;;;3.78;3.40;;;14.70;99.90;;;;;;4937394;28;20099;-65
2021/05/17 10:57:31;;;;;;;3.30;2.95;;;14.90;99.90;;;;;;4942686;28;20055;-65
2021/05/17 11:02:45;;;;;;;3.92;3.22;;;15.10;99.90;;;;;;4939940;28;20638;-63
2021/05/17 11:05:18;;;;;;;4.20;3.80;;;15.00;99.90;;;;;;4943279;28;20050;-63
2021/05/17 11:07:51;;;;;;;3.85;3.10;;;14.90;99.90;;;;;;4943536;28;20576;-63
2021/05/17 11:10:25;;;;;;;5.20;3.40;;;15.00;99.90;;;;;;4942674;28;20055;-63
2021/05/17 11:12:53;;;;;;;2.72;2.25;;;14.50;99.90;;;;;;4943427;28;20051;-65
2021/05/17 11:16:06;;;;;;;2.88;2.67;;;13.70;99.90;;;;;;4938186;28;20047;-65
2021/05/17 11:18:33;;;;;;;2.67;2.47;;;13.30;99.90;;;;;;4942467;28;20055;-66
2021/05/17 11:21:03;;;;;;;3.40;3.10;;;13.20;99.90;;;;;;4943559;28;20051;-66
2021/05/17 11:23:36;;;;;;;2.75;2.55;;;13.30;99.90;;;;;;4937355;28;20055;-65
2021/05/17 11:26:12;;;;;;;4.25;3.85;;;13.30;99.90;;;;;;4947506;28;20063;-66
2021/05/17 11:28:39;;;;;;;3.63;3.33;;;13.30;99.90;;;;;;4939846;28;20059;-65
2021/05/17 11:31:21;;;;;;;3.22;2.85;;;13.20;99.90;;;;;;4938910;28;20059;-65
2021/05/17 11:34:04;;;;;;;3.15;2.88;;;13.30;99.90;;;;;;4942372;28;20058;-66
2021/05/17 11:36:39;;;;;;;2.00;1.85;;;13.50;99.90;;;;;;4942850;28;20048;-66
2021/05/17 11:39:16;;;;;;;3.35;3.05;;;13.70;99.90;;;;;;4927477;28;20063;-65
2021/05/17 11:41:50;;;;;;;3.85;2.63;;;13.50;99.90;;;;;;4941702;28;20048;-65
2021/05/17 11:44:21;;;;;;;5.93;4.30;;;13.30;99.90;;;;;;4941429;28;20051;-65
2021/05/17 11:46:58;;;;;;;4.82;4.32;;;13.00;99.90;;;;;;4940186;28;20075;-65
2021/05/17 11:49:27;;;;;;;4.60;3.25;;;13.20;99.90;;;;;;4936838;28;20051;-65
2021/05/17 11:51:57;;;;;;;3.63;3.33;;;13.30;99.90;;;;;;4948128;28;20066;-66
2021/05/17 11:54:29;;;;;;;5.75;4.05;;;13.00;99.90;;;;;;4939982;28;20493;-65
2021/05/17 11:57:01;;;;;;;4.97;4.15;;;12.70;99.90;;;;;;4939977;28;20063;-65
2021/05/17 11:59:29;;;;;;;5.78;4.20;;;12.30;99.90;;;;;;4941621;28;20082;-65
2021/05/17 12:02:00;;;;;;;5.63;4.50;;;12.40;99.90;;;;;;4941756;28;20082;-66
2021/05/17 12:04:29;;;;;;;;;;;12.50;99.90;;;;;;4946791;28;20051;-66
2021/05/17 12:06:58;;;;;;;3.78;3.45;;;12.50;99.90;;;;;;4942917;28;19954;-66
2021/05/17 12:09:45;;;;;;;6.07;4.93;;;12.40;99.90;;;;;;4954409;28;20125;-65
2021/05/17 12:12:23;;;;;;;4.80;3.83;;;12.50;99.90;;;;;;4938212;28;20051;-65
2021/05/17 12:15:11;;;;;;;4.38;3.70;;;12.70;99.90;;;;;;4942216;28;20721;-65
2021/05/17 12:17:38;;;;;;;5.75;3.47;;;12.80;99.90;;;;;;4924780;29;20046;-65
2021/05/17 12:20:10;;;;;;;3.72;3.42;;;13.10;99.90;;;;;;4943447;28;20102;-65
2021/05/17 12:22:40;;;;;;;3.08;2.83;;;13.50;99.90;;;;;;4939011;28;20055;-65
2021/05/17 12:25:15;;;;;;;3.90;3.28;;;13.80;99.90;;;;;;4943773;28;20058;-65
2021/05/17 12:27:44;;;;;;;4.63;2.95;;;14.20;99.90;;;;;;4938253;28;20051;-65
2021/05/17 12:30:18;;;;;;;6.53;2.78;;;14.10;99.90;;;;;;4949035;28;20501;-66
2021/05/17 12:32:46;;;;;;;3.13;2.92;;;14.30;99.90;;;;;;4941221;28;20051;-66
2021/05/17 12:35:23;;;;;;;1.80;1.70;;;14.30;99.90;;;;;;4947172;28;20063;-66
2021/05/17 12:37:52;;;;;;;3.33;3.13;;;14.50;99.90;;;;;;4941383;28;20055;-66
2021/05/17 12:40:24;;;;;;;1.52;1.33;;;15.10;99.90;;;;;;4941277;28;20050;-66
2021/05/17 12:43:07;;;;;;;2.53;2.33;;;15.60;99.90;;;;;;4940745;28;20563;-66
2021/05/17 12:46:01;;;;;;;2.33;2.13;;;15.10;99.90;;;;;;4943656;28;20107;-66
2021/05/17 12:48:40;;;;;;;2.35;2.15;;;15.10;99.90;;;;;;4938899;28;20509;-66
2021/05/17 12:51:19;;;;;;;1.73;1.38;;;15.50;99.90;;;;;;4942247;28;20095;-63
2021/05/17 12:53:50;;;;;;;1.58;0.82;;;16.00;99.90;;;;;;4942162;28;20047;-63
2021/05/17 12:56:31;;;;;;;1.23;1.15;;;16.50;99.90;;;;;;4942256;28;20677;-63
2021/05/17 12:59:11;;;;;;;0.70;0.70;;;17.00;99.90;;;;;;4951786;28;20488;-63
2021/05/17 13:01:39;;;;;;;0.90;0.50;;;17.30;99.90;;;;;;4944220;28;20054;-63
2021/05/17 13:04:09;;;;;;;0.73;0.73;;;17.40;99.90;;;;;;4942763;28;20057;-63
2021/05/17 13:06:37;;;;;;;0.60;0.60;;;17.70;99.90;;;;;;4945743;28;20054;-66
2021/05/17 13:09:08;;;;;;;2.25;0.77;;;17.70;99.90;;;;;;4948445;28;20466;-64
2021/05/17 13:11:35;;;;;;;0.85;0.70;;;17.80;99.90;;;;;;4943933;28;20728;-64
2021/05/17 13:14:05;;;;;;;0.43;0.40;;;17.90;99.90;;;;;;4946432;28;20059;-64
2021/05/17 13:17:06;;;;;;;6.65;0.88;;;17.90;99.90;;;;;;4944641;28;20089;-64
2021/05/17 13:33:50;;;;;;;1.55;0.75;;;18.70;99.90;;;;;;4936975;28;20066;-63
2021/05/17 13:36:19;;;;;;;1.45;0.40;;;18.90;99.90;;;;;;4944167;28;20123;-64
2021/05/17 13:38:49;;;;;;;0.70;0.70;;;19.10;99.90;;;;;;4947042;28;20493;-64
2021/05/17 13:41:17;;;;;;;1.27;0.68;;;19.30;99.90;;;;;;4938168;28;20084;-64
2021/05/17 13:43:46;;;;;;;1.42;0.85;;;19.30;99.90;;;;;;4943453;28;20058;-64